Gaston, Indiana
Current Conditions -  °F | °C
As of 5:53 AM on Friday 31 Oct 2014 (Local Time) from KMIE Reporting Station
Broken Clouds Broken Clouds  
Wind Chill: 39°   Ceiling: 3100
Heat Index: 43°   Visibility: 10mi
Dew Point: 36°   Wind: 6mph
Humidity: 76%   Direction: 250°WSW
Pressure: 29.97"   Gusts: NA
Location:  40.31°N, 85.5°W
Report Text: KMIE 310953Z 25005KT 10SM BKN031 06/02 A2997 RMK AO2 SLP149 T00610022
Loading
Personal Weather Stations






























Interactive Weather Map
Tropical Storm Tracking
New forecast layout! Learn more

10-Day Weather Forecast

Advertisements
Track Severe Weather on mobile